Main page
METAR-TAF:

METAR-TAF

Airports :

Deputado Luís Eduardo Magalhães International Airport

Salvador, Bahia, Brazil

latitude: 12-54S, longitude: 038-20W, elevation: 6 m

Current weather observation

The report was made 1 hour and 13 minutes ago, at 22:00 UTC
Wind 10 kt from the East
Temperature 26°C
Humidity 74%
Pressure 1017 hPa
Visibility 10 km or more
Few clouds at a height of 2300 ft

METAR: SBSV 202200Z 09010KT 9999 FEW023 26/21 Q1017

Time: 20:13 (23:13 UTC)

Forecast

The report was made 8 hours and 13 minutes ago, at 15:00 UTC
Forecast valid from 20 at 18 UTC to 21 at 18 UTC
Wind 11 kt from the East
Visibility: 9000 m
Scattered clouds at a height of 2000 ft

TAF: SBSV 201500Z 2018/2118 09011KT 9000 SCT020 TN25/2108Z TX29/2114Z RMK PEU

Weather observations and forecasts of more than 4000 airports (METAR and TAF reports).

The available stations are represented by yellow and red dots on the map.

Hover mouse over dot to see the name of the station.

Then click to see weather observations and forecasts.

To change the map : click on the green buttons with a black cross to zoom in, on the green button with a dash to zoom out, or on the green arrows for adjacent maps.


METAR-TAF: